.
WxDataArchive / Data Records for 2006-07-27
2006-07-26 July 2006 2006-07-28

Data Records for Thursday, 27 July 2006

Time	Temp	Chill	HIndex	Humid	Dewpt	 Wind 	HiWind	WindDir	Rain 	Barom 
-----	----	-----	------	-----	-----	------	------	-------	-----	----- 
00:00	71.5	71.5	71.5	93	69.4	3	9	270	0.08	29.776 
00:05	70.4	70.4	70.4	91	67.6	2	6	315	0.07	29.776 
00:10	69.8	69.8	69.8	91	67.0	2	6	315	0.03	29.776 
00:15	69.6	69.6	69.6	92	67.2	0	2	338	0.04	29.764 
00:20	69.8	69.8	69.8	93	67.7	0	1	338	0.01	29.764 
00:25	69.9	69.9	69.9	93	67.8	0	2	338	0.00	29.764 
00:30	69.9	69.9	69.9	94	68.1	0	0	---	0.00	29.775 
00:35	70.1	70.1	70.1	94	68.3	1	3	22	0.00	29.775 
00:40	70.3	70.3	70.3	94	68.5	0	2	112	0.00	29.775 
00:45	70.6	70.6	70.6	94	68.8	0	2	112	0.00	29.776 
00:50	70.8	70.8	70.8	94	69.0	1	4	270	0.00	29.776 
00:55	70.8	70.8	70.8	94	69.0	1	3	202	0.00	29.776 
01:00	70.9	70.9	70.9	94	69.1	2	4	112	0.00	29.760 
01:05	70.9	70.9	70.9	94	69.1	0	2	90	0.00	29.760 
01:10	70.9	70.9	70.9	94	69.1	0	1	90	0.00	29.760 
01:15	70.9	70.9	70.9	94	69.1	1	3	90	0.00	29.786 
01:20	71.1	71.1	71.1	94	69.3	0	1	90	0.00	29.786 
01:25	71.1	71.1	71.1	94	69.3	0	2	90	0.00	29.786 
01:30	71.1	71.1	71.1	94	69.3	1	3	90	0.01	29.813 
01:35	70.6	70.6	70.6	94	68.8	1	3	270	0.03	29.813 
01:40	70.3	70.3	70.3	93	68.2	2	4	292	0.02	29.813 
01:45	70.3	70.3	70.3	94	68.5	3	6	270	0.07	29.796 
01:50	70.1	70.1	70.1	94	68.3	2	4	248	0.16	29.796 
01:55	69.8	69.8	69.8	94	68.0	2	3	248	0.06	29.796 
02:00	69.4	69.4	69.4	94	67.6	1	3	248	0.07	29.759 
02:05	69.1	69.1	69.1	94	67.3	1	4	248	0.01	29.759 
02:10	68.9	68.9	68.9	94	67.1	1	3	248	0.01	29.759 
02:15	68.8	68.8	68.8	94	67.0	1	5	270	0.00	29.785 
02:20	68.8	68.8	68.8	94	67.0	1	4	112	0.01	29.785 
02:25	69.1	69.1	69.1	94	67.3	0	2	112	0.00	29.785 
02:30	69.4	69.4	69.4	94	67.6	0	1	112	0.00	29.776 
02:35	69.6	69.6	69.6	95	68.1	0	1	112	0.01	29.776 
02:40	69.8	69.8	69.8	95	68.3	0	1	112	0.00	29.776 
02:45	69.8	69.8	69.8	95	68.3	0	1	112	0.00	29.778 
02:50	69.9	69.9	69.9	95	68.4	0	0	---	0.00	29.778 
02:55	69.9	69.9	69.9	95	68.4	0	0	---	0.00	29.778 
03:00	69.9	69.9	69.9	95	68.4	0	0	---	0.00	29.777 
03:05	69.9	69.9	69.9	95	68.4	0	1	112	0.00	29.777 
03:10	70.1	70.1	70.1	95	68.6	0	2	112	0.00	29.777 
03:15	70.1	70.1	70.1	95	68.6	0	2	112	0.00	29.765 
03:20	70.1	70.1	70.1	95	68.6	0	1	112	0.00	29.765 
03:25	69.9	69.9	69.9	95	68.4	0	1	112	0.00	29.765 
03:30	69.9	69.9	69.9	95	68.4	0	2	112	0.00	29.759 
03:35	69.9	69.9	69.9	95	68.4	0	1	112	0.00	29.759 
03:40	69.9	69.9	69.9	95	68.4	0	1	112	0.00	29.759 
03:45	69.8	69.8	69.8	95	68.3	0	0	---	0.00	29.756 
03:50	69.8	69.8	69.8	95	68.3	0	0	---	0.00	29.756 
03:55	69.8	69.8	69.8	95	68.3	0	0	---	0.00	29.756 
04:00	69.8	69.8	69.8	95	68.3	0	0	---	0.00	29.768 
04:05	69.9	69.9	69.9	95	68.4	0	0	---	0.00	29.768 
04:10	70.3	70.3	70.3	95	68.8	0	1	112	0.00	29.768 
04:15	70.4	70.4	70.4	95	68.9	0	1	112	0.00	29.774 
04:20	70.6	70.6	70.6	96	69.4	0	1	112	0.00	29.774 
04:25	70.9	70.9	70.9	96	69.7	0	1	112	0.00	29.774 
04:30	71.1	71.1	71.1	96	69.9	0	1	112	0.00	29.771 
04:35	71.3	71.3	71.3	96	70.1	0	1	112	0.00	29.771 
04:40	71.5	71.5	71.5	96	70.3	0	0	---	0.00	29.771 
04:45	71.6	71.6	71.6	96	70.4	0	0	---	0.00	29.777 
04:50	71.8	71.8	71.8	96	70.6	0	1	112	0.00	29.777 
04:55	72.0	72.0	72.0	96	70.8	0	0	---	0.00	29.777 
05:00	72.1	72.1	72.1	96	70.9	0	1	112	0.00	29.779 
05:05	72.3	72.3	72.3	96	71.1	0	0	---	0.00	29.779 
05:10	72.3	72.3	72.3	96	71.1	0	1	112	0.00	29.779 
05:15	72.5	72.5	72.5	96	71.3	0	1	112	0.00	29.781 
05:20	72.7	72.7	72.7	96	71.5	0	1	112	0.00	29.781 
05:25	72.7	72.7	72.7	96	71.5	0	2	225	0.00	29.781 
05:30	72.8	72.8	72.8	96	71.6	0	1	225	0.00	29.780 
05:35	72.8	72.8	72.8	96	71.6	0	1	225	0.00	29.780 
05:40	72.8	72.8	72.8	96	71.6	0	1	225	0.01	29.780 
05:45	73.0	73.0	73.0	96	71.8	0	1	225	0.00	29.777 
05:50	73.0	73.0	73.0	96	71.8	0	2	225	0.00	29.777 
05:55	73.0	73.0	73.0	96	71.8	1	2	202	0.00	29.777 
06:00	73.0	73.0	73.0	96	71.8	1	2	248	0.00	29.776 
06:05	73.2	73.2	73.2	96	72.0	1	3	248	0.00	29.776 
06:10	73.2	73.2	73.2	96	72.0	1	2	248	0.00	29.776 
06:15	73.2	73.2	73.2	96	72.0	1	2	248	0.00	29.778 
06:20	73.2	73.2	73.2	96	72.0	1	3	248	0.00	29.778 
06:25	73.2	73.2	73.2	96	72.0	1	3	248	0.00	29.778 
06:30	73.3	73.3	73.3	96	72.1	0	2	248	0.00	29.777 
06:35	73.3	73.3	73.3	96	72.1	0	1	248	0.00	29.777 
06:40	73.3	73.3	73.3	96	72.1	1	3	248	0.00	29.777 
06:45	73.3	73.3	73.3	96	72.1	1	3	248	0.00	29.779 
06:50	73.3	73.3	73.3	96	72.1	0	2	270	0.00	29.779 
06:55	73.3	73.3	73.3	96	72.1	0	2	270	0.00	29.779 
07:00	73.3	73.3	73.3	96	72.1	1	3	248	0.00	29.785 
07:05	73.3	73.3	73.3	96	72.1	1	2	248	0.00	29.785 
07:10	73.3	73.3	73.3	96	72.1	1	6	248	0.00	29.785 
07:15	73.5	73.5	73.5	96	72.3	1	3	248	0.00	29.782 
07:20	73.5	73.5	73.5	96	72.3	1	3	248	0.00	29.782 
07:25	73.5	73.5	73.5	96	72.3	1	2	225	0.00	29.782 
07:30	73.5	73.5	73.5	96	72.3	1	3	248	0.00	29.781 
07:35	73.5	73.5	73.5	96	72.3	0	2	248	0.00	29.781 
07:40	73.7	73.7	73.7	96	72.5	0	2	248	0.00	29.781 
07:45	73.7	73.7	73.7	96	72.5	0	1	248	0.00	29.775 
07:50	73.7	73.7	73.7	96	72.5	0	1	248	0.00	29.775 
07:55	73.9	73.9	73.9	96	72.7	0	2	248	0.00	29.775 
08:00	73.9	73.9	73.9	96	72.7	1	2	248	0.00	29.776 
08:05	74.2	74.2	74.2	96	73.0	1	3	248	0.00	29.776 
08:10	74.4	74.4	74.4	96	73.2	1	2	248	0.00	29.776 
08:15	74.7	74.7	74.7	95	73.2	0	1	248	0.00	29.775 
08:20	74.9	74.9	74.9	95	73.4	1	2	248	0.00	29.775 
08:25	74.9	74.9	74.9	94	73.0	1	3	248	0.00	29.775 
08:30	75.3	75.3	74.0	94	73.4	1	3	248	0.00	29.774 
08:35	75.3	75.3	74.2	93	73.1	1	5	248	0.00	29.774 
08:40	75.4	75.4	74.5	92	72.9	0	2	248	0.00	29.774 
08:45	75.6	75.6	75.0	92	73.1	1	4	270	0.00	29.787 
08:50	75.4	75.4	75.0	89	71.9	2	6	270	0.00	29.787 
08:55	75.3	75.3	74.7	90	72.2	2	5	270	0.00	29.787 
09:00	75.6	75.6	75.2	90	72.4	2	5	270	0.00	29.789 
09:05	76.0	76.0	76.0	90	72.8	1	3	248	0.00	29.789 
09:10	76.0	76.0	76.3	88	72.2	2	5	270	0.00	29.789 
09:15	75.8	75.8	75.8	89	72.3	2	4	248	0.00	29.799 
09:20	75.8	75.8	75.8	89	72.3	2	6	270	0.00	29.799 
09:25	75.6	75.6	75.4	89	72.1	1	6	248	0.00	29.799 
09:30	75.6	75.6	75.4	89	72.1	2	4	248	0.00	29.805 
09:35	75.6	75.6	75.4	89	72.1	2	5	248	0.00	29.805 
09:40	75.6	75.6	75.4	89	72.1	1	2	248	0.00	29.805 
09:45	75.4	75.4	75.0	89	71.9	1	4	270	0.00	29.811 
09:50	75.4	75.4	75.0	89	71.9	2	3	248	0.00	29.811 
09:55	75.4	75.4	75.1	88	71.6	2	6	248	0.00	29.811 
10:00	75.6	75.6	75.5	88	71.8	1	3	248	0.00	29.813 
10:05	75.6	75.6	75.5	88	71.8	1	4	248	0.00	29.813 
10:10	75.6	75.6	75.5	88	71.8	2	4	248	0.00	29.813 
10:15	75.8	75.8	75.9	88	72.0	2	6	270	0.00	29.819 
10:20	75.8	75.8	76.0	87	71.6	2	5	248	0.00	29.819 
10:25	76.0	76.0	76.3	88	72.2	1	3	248	0.00	29.819 
10:30	76.0	76.0	76.4	87	71.8	2	5	248	0.00	29.826 
10:35	76.1	76.1	76.6	87	71.9	2	6	248	0.00	29.826 
10:40	76.3	76.3	76.9	87	72.1	1	4	248	0.00	29.826 
10:45	76.8	76.8	78.0	86	72.3	2	5	248	0.00	29.825 
10:50	77.2	77.2	78.8	85	72.3	3	7	248	0.00	29.825 
10:55	77.7	77.7	79.8	84	72.5	3	6	248	0.00	29.825 
11:00	77.9	77.9	80.2	83	72.3	3	6	248	0.00	29.825 
11:05	78.1	78.1	80.6	83	72.5	1	3	248	0.00	29.825 
11:10	78.1	78.1	80.5	82	72.1	2	5	248	0.00	29.825 
11:15	77.9	77.9	80.1	81	71.6	3	7	248	0.00	29.827 
11:20	78.1	78.1	80.5	81	71.8	2	4	225	0.00	29.827 
11:25	78.1	78.1	80.5	81	71.8	3	6	270	0.00	29.827 
11:30	77.9	77.9	80.1	81	71.6	2	7	270	0.00	29.830 
11:35	77.9	77.9	80.1	81	71.6	2	5	248	0.00	29.830 
11:40	77.7	77.7	79.8	82	71.8	2	4	248	0.00	29.830 
11:45	77.9	77.9	80.1	81	71.6	2	4	248	0.00	29.830 
11:50	78.1	78.1	80.5	81	71.8	2	5	270	0.00	29.830 
11:55	77.9	77.9	80.2	82	71.9	1	4	0	0.00	29.830 
12:00	78.1	78.1	80.5	82	72.1	2	5	248	0.00	29.827 
12:05	78.5	78.5	81.2	79	71.4	3	10	270	0.00	29.827 
12:10	78.8	78.8	81.7	78	71.3	3	9	248	0.00	29.827 
12:15	79.0	79.0	82.0	78	71.5	2	7	248	0.00	29.827 
12:20	78.8	78.8	81.7	78	71.3	3	7	248	0.00	29.827 
12:25	78.6	78.6	81.4	80	71.9	1	5	270	0.00	29.827 
12:30	78.6	78.6	81.3	78	71.1	3	9	270	0.00	29.825 
12:35	78.6	78.6	81.4	79	71.5	3	8	270	0.00	29.825 
12:40	78.8	78.8	81.7	78	71.3	3	6	248	0.00	29.825 
12:45	78.6	78.6	81.4	79	71.5	3	7	248	0.00	29.828 
12:50	78.6	78.6	81.3	78	71.1	4	7	270	0.00	29.828 
12:55	78.6	78.6	81.3	78	71.1	2	6	270	0.00	29.828 
13:00	78.3	78.3	80.8	79	71.2	2	7	270	0.00	29.831 
13:05	78.1	78.1	80.5	79	71.0	2	5	248	0.00	29.831 
13:10	78.1	78.1	80.5	80	71.4	2	6	248	0.00	29.831 
13:15	77.9	77.9	80.1	80	71.2	2	5	248	0.00	29.841 
13:20	77.6	77.6	79.6	80	70.9	1	3	248	0.00	29.841 
13:25	77.2	77.2	78.9	81	70.9	3	7	248	0.00	29.841 
13:30	76.8	76.8	78.1	83	71.2	3	6	248	0.00	29.843 
13:35	76.3	76.3	77.1	85	71.4	3	6	248	0.00	29.843 
13:40	76.0	76.0	76.5	86	71.5	2	7	248	0.00	29.843 
13:45	75.8	75.8	76.0	87	71.6	2	4	248	0.00	29.845 
13:50	75.8	75.8	76.0	87	71.6	1	4	270	0.00	29.845 
13:55	76.0	76.0	76.5	86	71.5	1	3	270	0.00	29.845 
14:00	76.3	76.3	77.0	86	71.8	1	4	270	0.00	29.843 
14:05	76.7	76.7	77.9	84	71.5	1	4	248	0.00	29.843 
14:10	77.0	77.0	78.4	84	71.8	1	3	270	0.00	29.843 
14:15	77.2	77.2	78.8	84	72.0	1	3	248	0.00	29.840 
14:20	77.7	77.7	79.8	83	72.1	2	6	248	0.00	29.840 
14:25	78.5	78.5	81.3	81	72.2	2	7	248	0.00	29.840 
14:30	79.2	79.2	82.7	81	72.8	1	4	270	0.00	29.827 
14:35	79.8	79.8	83.7	79	72.7	2	7	90	0.00	29.827 
14:40	79.8	79.8	83.4	77	71.9	2	5	270	0.00	29.827 
14:45	79.6	79.6	83.2	78	72.1	1	5	270	0.00	29.825 
14:50	79.4	79.4	82.8	78	71.9	2	5	248	0.00	29.825 
14:55	79.0	79.0	82.1	79	71.9	1	4	248	0.00	29.825 
15:00	78.8	78.8	81.7	79	71.7	1	4	248	0.00	29.823 
15:05	78.5	78.5	81.2	79	71.4	2	5	270	0.00	29.823 
15:10	78.5	78.5	81.3	81	72.2	1	3	248	0.00	29.823 
15:15	78.6	78.6	81.4	79	71.5	2	5	248	0.00	29.823 
15:20	78.6	78.6	81.4	80	71.9	1	3	248	0.00	29.823 
15:25	78.6	78.6	81.4	80	71.9	1	3	248	0.00	29.823 
15:30	78.6	78.6	81.4	80	71.9	1	4	248	0.00	29.822 
15:35	78.6	78.6	81.4	79	71.5	1	4	248	0.00	29.822 
15:40	78.8	78.8	81.8	80	72.1	1	4	248	0.00	29.822 
15:45	78.8	78.8	81.7	79	71.7	1	4	225	0.00	29.817 
15:50	78.8	78.8	81.8	80	72.1	1	4	248	0.00	29.817 
15:55	78.8	78.8	81.8	80	72.1	1	3	0	0.00	29.817 
16:00	79.2	79.2	82.5	79	72.1	1	3	270	0.00	29.814 
16:05	79.6	79.6	83.2	78	72.1	1	5	270	0.00	29.814 
16:10	79.8	79.8	83.6	78	72.3	2	4	248	0.00	29.814 
16:15	79.6	79.6	83.2	78	72.1	1	4	225	0.00	29.813 
16:20	79.6	79.6	83.2	78	72.1	1	3	225	0.00	29.813 
16:25	79.6	79.6	83.3	79	72.5	1	3	270	0.00	29.813 
16:30	79.6	79.6	83.3	79	72.5	1	3	270	0.00	29.814 
16:35	79.4	79.4	82.8	78	71.9	2	6	248	0.00	29.814 
16:40	79.2	79.2	82.6	80	72.5	2	4	248	0.01	29.814 
16:45	78.6	78.6	81.6	83	73.0	1	2	225	0.00	29.813 
16:50	78.3	78.3	81.0	83	72.7	1	6	270	0.00	29.813 
16:55	77.9	77.9	80.2	84	72.7	1	4	248	0.00	29.813 
17:00	77.9	77.9	80.2	84	72.7	1	2	248	0.00	29.811 
17:05	77.7	77.7	79.8	85	72.8	0	1	248	0.00	29.811 
17:10	77.7	77.7	79.8	85	72.8	0	3	248	0.00	29.811 
17:15	77.7	77.7	79.8	85	72.8	0	2	248	0.00	29.815 
17:20	77.7	77.7	79.8	85	72.8	0	1	248	0.00	29.815 
17:25	77.9	77.9	80.2	86	73.4	0	2	292	0.00	29.815 
17:30	77.9	77.9	80.2	85	73.0	1	3	68	0.00	29.807 
17:35	77.9	77.9	80.2	85	73.0	1	6	90	0.00	29.807 
17:40	78.1	78.1	80.6	84	72.9	2	4	112	0.00	29.807 
17:45	77.9	77.9	80.2	85	73.0	2	5	270	0.02	29.806 
17:50	77.2	77.2	78.7	87	73.0	2	9	270	0.08	29.806 
17:55	76.5	76.5	77.2	88	72.7	1	4	270	0.01	29.806 
18:00	76.1	76.1	76.4	89	72.6	1	3	270	0.00	29.809 
18:05	76.0	76.0	76.0	90	72.8	0	2	270	0.00	29.809 
18:10	76.0	76.0	76.0	90	72.8	1	4	270	0.00	29.809 
18:15	75.8	75.8	75.5	91	73.0	1	2	270	0.01	29.825 
18:20	75.6	75.6	75.1	91	72.8	0	1	270	0.00	29.825 
18:25	75.6	75.6	75.0	92	73.1	1	2	270	0.01	29.825 
18:30	75.4	75.4	74.5	92	72.9	0	2	270	0.00	29.825 
18:35	75.4	75.4	74.5	92	72.9	0	1	270	0.01	29.825 
18:40	75.4	75.4	74.5	92	72.9	0	0	---	0.01	29.825 
18:45	75.4	75.4	74.5	92	72.9	0	1	270	0.00	29.824 
18:50	75.4	75.4	74.4	93	73.2	0	1	270	0.00	29.824 
18:55	75.4	75.4	74.4	93	73.2	0	1	270	0.00	29.824 
19:00	75.4	75.4	74.4	93	73.2	0	1	270	0.00	29.807 
19:05	75.4	75.4	74.4	93	73.2	0	2	270	0.00	29.807 
19:10	75.4	75.4	74.4	93	73.2	0	0	---	0.00	29.807 
19:15	75.4	75.4	74.4	93	73.2	0	1	270	0.00	29.810 
19:20	75.4	75.4	74.4	93	73.2	0	1	270	0.00	29.810 
19:25	75.4	75.4	74.4	93	73.2	0	1	270	0.00	29.810 
19:30	75.4	75.4	74.4	93	73.2	0	0	---	0.00	29.807 
19:35	75.4	75.4	74.4	93	73.2	0	1	270	0.00	29.807 
19:40	75.4	75.4	74.4	93	73.2	0	2	270	0.00	29.807 
19:45	75.4	75.4	74.4	93	73.2	0	0	---	0.00	29.810 
19:50	75.6	75.6	74.8	93	73.4	0	0	---	0.00	29.810 
19:55	75.6	75.6	74.7	94	73.7	0	0	---	0.00	29.810 
20:00	75.6	75.6	74.7	94	73.7	0	0	---	0.00	29.804 
20:05	75.6	75.6	74.7	94	73.7	0	0	---	0.00	29.804 
20:10	75.8	75.8	75.1	94	73.9	0	0	---	0.00	29.804 
20:15	75.8	75.8	75.1	94	73.9	0	0	---	0.00	29.794 
20:20	75.6	75.6	74.7	94	73.7	0	0	---	0.00	29.794 
20:25	75.6	75.6	74.7	94	73.7	0	0	---	0.00	29.794 
20:30	75.6	75.6	74.7	94	73.7	0	0	---	0.00	29.802 
20:35	75.6	75.6	74.7	94	73.7	0	0	---	0.00	29.802 
20:40	75.6	75.6	74.7	94	73.7	0	0	---	0.01	29.802 
20:45	75.6	75.6	74.7	94	73.7	0	0	---	0.00	29.808 
20:50	75.6	75.6	74.7	94	73.7	0	0	---	0.00	29.808 
20:55	75.6	75.6	74.7	94	73.7	0	0	---	0.00	29.808 
21:00	75.6	75.6	74.7	94	73.7	0	0	---	0.00	29.810 
21:05	75.6	75.6	74.7	94	73.7	0	0	---	0.00	29.810 
21:10	75.6	75.6	74.7	94	73.7	0	0	---	0.00	29.810 
21:15	75.4	75.4	74.2	94	73.5	0	0	---	0.00	29.810 
21:20	75.4	75.4	74.2	94	73.5	0	0	---	0.00	29.810 
21:25	75.4	75.4	74.2	94	73.5	0	1	270	0.00	29.810 
21:30	75.3	75.3	74.0	94	73.4	0	2	270	0.00	29.809 
21:35	75.3	75.3	74.0	94	73.4	0	2	270	0.00	29.809 
21:40	75.3	75.3	74.0	94	73.4	0	1	270	0.00	29.809 
21:45	75.3	75.3	74.2	93	73.1	0	2	270	0.00	29.811 
21:50	75.3	75.3	74.2	93	73.1	2	5	248	0.00	29.811 
21:55	75.4	75.4	74.5	92	72.9	2	5	270	0.00	29.811 
22:00	75.4	75.4	74.7	91	72.6	2	4	248	0.00	29.816 
22:05	75.6	75.6	75.1	91	72.8	2	5	270	0.00	29.816 
22:10	75.6	75.6	75.1	91	72.8	2	5	270	0.00	29.816 
22:15	75.8	75.8	75.6	90	72.6	2	4	270	0.00	29.814 
22:20	75.8	75.8	75.6	90	72.6	1	2	270	0.00	29.814 
22:25	75.6	75.6	75.1	91	72.8	1	3	248	0.00	29.814 
22:30	75.6	75.6	75.1	91	72.8	1	3	248	0.00	29.807 
22:35	75.6	75.6	75.2	90	72.4	2	4	248	0.00	29.807 
22:40	75.6	75.6	75.2	90	72.4	1	2	270	0.00	29.807 
22:45	75.4	75.4	74.8	90	72.3	1	2	270	0.00	29.813 
22:50	75.4	75.4	74.8	90	72.3	0	2	270	0.00	29.813 
22:55	75.3	75.3	74.5	91	72.5	1	3	270	0.00	29.813 
23:00	75.3	75.3	74.5	91	72.5	1	2	270	0.00	29.817 
23:05	75.3	75.3	74.7	90	72.2	1	2	270	0.00	29.817 
23:10	75.1	75.1	74.3	90	72.0	1	4	248	0.00	29.817 
23:15	75.1	75.1	74.3	90	72.0	1	4	248	0.02	29.824 
23:20	74.9	74.9	74.9	91	72.1	1	3	248	0.04	29.824 
23:25	74.6	74.6	74.6	91	71.8	2	6	270	0.03	29.824 
23:30	74.0	74.0	74.0	91	71.2	1	4	270	0.02	29.805 
23:35	73.7	73.7	73.7	91	70.9	1	4	248	0.00	29.805 
23:40	73.5	73.5	73.5	92	71.0	1	3	248	0.01	29.805 
23:45	73.3	73.3	73.3	92	70.8	0	2	248	0.00	29.804 
23:50	73.2	73.2	73.2	92	70.7	1	2	248	0.00	29.804 
23:55	73.2	73.2	73.2	93	71.0	0	1	248	0.00	29.804 

CoCoRaHS
IN-AL-39
A2 Web Hosting
Creative Commons License
GoDaddy
Look for:

loaded 2017-12-11 14:11:58 • last modified 2010-11-18 10:43:29
Privacy PolicyDisclaimer
• wx.awcolley.com is powered by PmWiki v.2002016 •
• all content (unless otherwise noted) © 2017 A W Colley